sensor_id;sensor_type;location;lat;lon;timestamp;pressure;altitude;pressure_sealevel;temperature;humidity
67373;BME280;54257;54.496;18.412;2023-05-01T00:02:09;100344.47;;;4.04;70.53
67373;BME280;54257;54.496;18.412;2023-05-01T00:04:36;100347.36;;;4.05;70.62
67373;BME280;54257;54.496;18.412;2023-05-01T00:07:02;100348.60;;;4.09;70.30
67373;BME280;54257;54.496;18.412;2023-05-01T00:09:30;100347.02;;;4.15;70.11
67373;BME280;54257;54.496;18.412;2023-05-01T00:11:58;100344.61;;;4.10;70.17
67373;BME280;54257;54.496;18.412;2023-05-01T00:14:27;100345.20;;;4.05;70.19
67373;BME280;54257;54.496;18.412;2023-05-01T00:16:55;100345.52;;;4.05;70.23
67373;BME280;54257;54.496;18.412;2023-05-01T00:19:25;100345.44;;;4.03;70.09
67373;BME280;54257;54.496;18.412;2023-05-01T00:21:52;100349.71;;;4.04;70.05
67373;BME280;54257;54.496;18.412;2023-05-01T00:24:18;100347.02;;;4.05;69.97
67373;BME280;54257;54.496;18.412;2023-05-01T00:26:46;100349.59;;;4.05;69.87
67373;BME280;54257;54.496;18.412;2023-05-01T00:29:12;100347.70;;;4.04;69.86
67373;BME280;54257;54.496;18.412;2023-05-01T00:31:39;100351.74;;;4.04;69.77
67373;BME280;54257;54.496;18.412;2023-05-01T00:34:08;100351.70;;;4.03;69.81
67373;BME280;54257;54.496;18.412;2023-05-01T00:36:36;100352.15;;;4.02;69.73
67373;BME280;54257;54.496;18.412;2023-05-01T00:39:03;100348.52;;;4.00;69.50
67373;BME280;54257;54.496;18.412;2023-05-01T00:41:32;100350.40;;;3.98;69.60
67373;BME280;54257;54.496;18.412;2023-05-01T00:43:59;100349.85;;;3.93;69.72
67373;BME280;54257;54.496;18.412;2023-05-01T00:46:27;100348.30;;;3.89;70.02
67373;BME280;54257;54.496;18.412;2023-05-01T00:48:56;100352.02;;;3.83;70.41
67373;BME280;54257;54.496;18.412;2023-05-01T00:51:23;100347.20;;;3.74;70.96
67373;BME280;54257;54.496;18.412;2023-05-01T00:53:52;100349.11;;;3.68;71.22
67373;BME280;54257;54.496;18.412;2023-05-01T00:56:19;100348.13;;;3.69;71.29
67373;BME280;54257;54.496;18.412;2023-05-01T00:58:49;100345.88;;;3.71;70.98
67373;BME280;54257;54.496;18.412;2023-05-01T01:01:22;100346.45;;;3.73;70.87
67373;BME280;54257;54.496;18.412;2023-05-01T01:03:49;100342.95;;;3.74;70.70
67373;BME280;54257;54.496;18.412;2023-05-01T01:06:44;100341.54;;;3.75;70.53
67373;BME280;54257;54.496;18.412;2023-05-01T01:09:41;100340.96;;;3.74;70.51
67373;BME280;54257;54.496;18.412;2023-05-01T01:15:04;100345.42;;;3.72;70.53
67373;BME280;54257;54.496;18.412;2023-05-01T01:17:44;100343.66;;;3.71;70.44
67373;BME280;54257;54.496;18.412;2023-05-01T01:23:03;100345.23;;;3.68;70.48
67373;BME280;54257;54.496;18.412;2023-05-01T01:35:56;100346.45;;;3.56;70.92
67373;BME280;54257;54.496;18.412;2023-05-01T01:38:28;100345.17;;;3.54;70.87
67373;BME280;54257;54.496;18.412;2023-05-01T01:41:31;100343.83;;;3.50;70.60
67373;BME280;54257;54.496;18.412;2023-05-01T01:44:01;100342.13;;;3.44;70.88
67373;BME280;54257;54.496;18.412;2023-05-01T01:46:36;100341.11;;;3.40;70.86
67373;BME280;54257;54.496;18.412;2023-05-01T01:49:12;100339.89;;;3.33;70.99
67373;BME280;54257;54.496;18.412;2023-05-01T01:51:41;100332.04;;;3.24;71.19
67373;BME280;54257;54.496;18.412;2023-05-01T01:54:10;100335.39;;;3.18;71.39
67373;BME280;54257;54.496;18.412;2023-05-01T01:56:40;100334.44;;;3.12;71.38
67373;BME280;54257;54.496;18.412;2023-05-01T01:59:09;100332.55;;;3.08;71.72
67373;BME280;54257;54.496;18.412;2023-05-01T02:01:38;100328.41;;;3.03;71.95
67373;BME280;54257;54.496;18.412;2023-05-01T02:04:07;100328.56;;;3.00;72.01
67373;BME280;54257;54.496;18.412;2023-05-01T02:06:36;100325.83;;;2.96;72.18
67373;BME280;54257;54.496;18.412;2023-05-01T02:09:04;100324.89;;;2.94;72.53
67373;BME280;54257;54.496;18.412;2023-05-01T02:11:34;100321.65;;;2.94;72.54
67373;BME280;54257;54.496;18.412;2023-05-01T02:14:04;100323.02;;;2.94;72.56
67373;BME280;54257;54.496;18.412;2023-05-01T02:16:33;100326.67;;;2.93;72.60
67373;BME280;54257;54.496;18.412;2023-05-01T02:19:03;100333.17;;;2.92;72.69
67373;BME280;54257;54.496;18.412;2023-05-01T02:21:32;100334.16;;;2.88;73.06
67373;BME280;54257;54.496;18.412;2023-05-01T02:24:00;100334.19;;;2.82;73.02
67373;BME280;54257;54.496;18.412;2023-05-01T02:26:28;100333.75;;;2.80;72.91
67373;BME280;54257;54.496;18.412;2023-05-01T02:28:55;100330.19;;;2.79;73.00
67373;BME280;54257;54.496;18.412;2023-05-01T02:31:22;100328.12;;;2.82;73.14
67373;BME280;54257;54.496;18.412;2023-05-01T02:33:49;100324.45;;;2.86;73.07
67373;BME280;54257;54.496;18.412;2023-05-01T02:36:15;100319.63;;;2.87;72.97
67373;BME280;54257;54.496;18.412;2023-05-01T02:38:42;100325.03;;;2.91;72.79
67373;BME280;54257;54.496;18.412;2023-05-01T02:41:10;100316.86;;;2.93;72.61
67373;BME280;54257;54.496;18.412;2023-05-01T02:43:40;100317.05;;;2.93;72.42
67373;BME280;54257;54.496;18.412;2023-05-01T02:46:09;100317.80;;;2.91;72.30
67373;BME280;54257;54.496;18.412;2023-05-01T02:48:39;100311.95;;;2.89;72.30
67373;BME280;54257;54.496;18.412;2023-05-01T02:51:08;100308.95;;;2.90;72.44
67373;BME280;54257;54.496;18.412;2023-05-01T02:53:36;100309.51;;;2.88;72.47
67373;BME280;54257;54.496;18.412;2023-05-01T02:56:05;100303.93;;;2.87;72.35
67373;BME280;54257;54.496;18.412;2023-05-01T02:58:33;100306.98;;;2.87;72.24
67373;BME280;54257;54.496;18.412;2023-05-01T03:01:00;100301.94;;;2.88;72.51
67373;BME280;54257;54.496;18.412;2023-05-01T03:03:27;100301.89;;;2.87;72.36
67373;BME280;54257;54.496;18.412;2023-05-01T03:05:54;100301.42;;;2.88;72.36
67373;BME280;54257;54.496;18.412;2023-05-01T03:08:20;100298.38;;;2.88;72.69
67373;BME280;54257;54.496;18.412;2023-05-01T03:10:47;100294.11;;;2.87;72.79
67373;BME280;54257;54.496;18.412;2023-05-01T03:13:14;100289.15;;;2.88;72.73
67373;BME280;54257;54.496;18.412;2023-05-01T03:15:43;100289.40;;;2.90;72.68
67373;BME280;54257;54.496;18.412;2023-05-01T03:18:09;100286.57;;;2.91;72.70
67373;BME280;54257;54.496;18.412;2023-05-01T03:20:39;100286.38;;;2.90;72.68
67373;BME280;54257;54.496;18.412;2023-05-01T03:23:05;100288.13;;;2.92;72.69
67373;BME280;54257;54.496;18.412;2023-05-01T03:25:33;100286.87;;;2.93;72.61
67373;BME280;54257;54.496;18.412;2023-05-01T03:28:00;100285.98;;;2.95;72.69
67373;BME280;54257;54.496;18.412;2023-05-01T03:30:27;100285.56;;;2.97;72.52
67373;BME280;54257;54.496;18.412;2023-05-01T03:32:53;100285.63;;;2.99;72.60
67373;BME280;54257;54.496;18.412;2023-05-01T03:35:20;100284.14;;;2.99;72.66
67373;BME280;54257;54.496;18.412;2023-05-01T03:37:47;100285.21;;;3.00;72.70
67373;BME280;54257;54.496;18.412;2023-05-01T03:40:17;100283.26;;;2.98;72.82
67373;BME280;54257;54.496;18.412;2023-05-01T03:42:45;100282.72;;;2.98;73.10
67373;BME280;54257;54.496;18.412;2023-05-01T03:45:11;100284.88;;;3.00;73.27
67373;BME280;54257;54.496;18.412;2023-05-01T03:47:38;100287.06;;;3.03;73.27
67373;BME280;54257;54.496;18.412;2023-05-01T03:50:06;100286.89;;;3.00;73.52
67373;BME280;54257;54.496;18.412;2023-05-01T03:52:34;100288.91;;;2.97;74.15
67373;BME280;54257;54.496;18.412;2023-05-01T03:55:00;100284.40;;;2.94;74.66
67373;BME280;54257;54.496;18.412;2023-05-01T03:57:28;100286.13;;;2.89;75.26
67373;BME280;54257;54.496;18.412;2023-05-01T03:59:55;100279.96;;;2.84;75.59
67373;BME280;54257;54.496;18.412;2023-05-01T04:02:22;100278.52;;;2.82;75.77
67373;BME280;54257;54.496;18.412;2023-05-01T04:04:49;100275.28;;;2.85;75.61
67373;BME280;54257;54.496;18.412;2023-05-01T04:07:17;100278.14;;;2.87;75.93
67373;BME280;54257;54.496;18.412;2023-05-01T04:09:43;100283.28;;;2.89;76.39
67373;BME280;54257;54.496;18.412;2023-05-01T04:12:10;100278.39;;;2.92;76.96
67373;BME280;54257;54.496;18.412;2023-05-01T04:14:37;100281.38;;;2.94;77.00
67373;BME280;54257;54.496;18.412;2023-05-01T04:17:04;100278.77;;;2.96;77.95
67373;BME280;54257;54.496;18.412;2023-05-01T04:19:30;100279.20;;;2.98;78.76
67373;BME280;54257;54.496;18.412;2023-05-01T04:21:57;100283.09;;;3.02;78.77
67373;BME280;54257;54.496;18.412;2023-05-01T04:24:24;100280.92;;;3.05;79.33
67373;BME280;54257;54.496;18.412;2023-05-01T04:26:51;100278.69;;;3.08;79.78
67373;BME280;54257;54.496;18.412;2023-05-01T04:29:18;100275.09;;;3.10;80.53
67373;BME280;54257;54.496;18.412;2023-05-01T04:31:44;100279.06;;;3.15;80.73
67373;BME280;54257;54.496;18.412;2023-05-01T04:34:12;100278.46;;;3.20;81.31
67373;BME280;54257;54.496;18.412;2023-05-01T04:36:38;100278.59;;;3.23;81.03
67373;BME280;54257;54.496;18.412;2023-05-01T04:39:05;100283.30;;;3.29;82.08
67373;BME280;54257;54.496;18.412;2023-05-01T04:41:32;100281.14;;;3.36;82.18
67373;BME280;54257;54.496;18.412;2023-05-01T04:43:59;100283.86;;;3.40;83.14
67373;BME280;54257;54.496;18.412;2023-05-01T04:46:26;100284.55;;;3.43;82.82
67373;BME280;54257;54.496;18.412;2023-05-01T04:48:53;100281.48;;;3.47;83.35
67373;BME280;54257;54.496;18.412;2023-05-01T04:51:20;100286.08;;;3.54;83.16
67373;BME280;54257;54.496;18.412;2023-05-01T04:53:47;100282.73;;;3.58;83.09
67373;BME280;54257;54.496;18.412;2023-05-01T04:56:14;100282.95;;;3.62;83.13
67373;BME280;54257;54.496;18.412;2023-05-01T04:58:41;100287.41;;;3.67;83.32
67373;BME280;54257;54.496;18.412;2023-05-01T05:01:08;100286.19;;;3.73;83.29
67373;BME280;54257;54.496;18.412;2023-05-01T05:03:34;100286.29;;;3.79;83.27
67373;BME280;54257;54.496;18.412;2023-05-01T05:06:01;100289.52;;;3.83;83.51
67373;BME280;54257;54.496;18.412;2023-05-01T05:08:29;100293.48;;;3.88;83.86
67373;BME280;54257;54.496;18.412;2023-05-01T05:11:00;100294.96;;;3.94;83.96
67373;BME280;54257;54.496;18.412;2023-05-01T05:13:27;100298.67;;;4.01;83.59
67373;BME280;54257;54.496;18.412;2023-05-01T05:15:55;100299.78;;;4.09;83.62
67373;BME280;54257;54.496;18.412;2023-05-01T05:18:21;100303.67;;;4.13;83.80
67373;BME280;54257;54.496;18.412;2023-05-01T05:20:48;100298.09;;;4.20;83.75
67373;BME280;54257;54.496;18.412;2023-05-01T05:23:15;100300.75;;;4.30;83.68
67373;BME280;54257;54.496;18.412;2023-05-01T05:25:42;100298.67;;;4.36;83.84
67373;BME280;54257;54.496;18.412;2023-05-01T05:28:10;100300.98;;;4.50;83.27
67373;BME280;54257;54.496;18.412;2023-05-01T05:30:37;100299.69;;;4.58;83.07
67373;BME280;54257;54.496;18.412;2023-05-01T05:33:07;100296.48;;;4.66;82.99
67373;BME280;54257;54.496;18.412;2023-05-01T05:35:34;100293.63;;;4.81;82.74
67373;BME280;54257;54.496;18.412;2023-05-01T05:38:04;100291.45;;;4.97;82.12
67373;BME280;54257;54.496;18.412;2023-05-01T05:40:32;100290.41;;;5.12;82.33
67373;BME280;54257;54.496;18.412;2023-05-01T05:42:59;100295.28;;;5.30;82.07
67373;BME280;54257;54.496;18.412;2023-05-01T05:45:27;100295.07;;;5.49;81.63
67373;BME280;54257;54.496;18.412;2023-05-01T05:48:05;100296.76;;;5.69;80.93
67373;BME280;54257;54.496;18.412;2023-05-01T05:50:38;100294.19;;;5.89;80.64
67373;BME280;54257;54.496;18.412;2023-05-01T05:53:06;100292.35;;;6.14;80.96
67373;BME280;54257;54.496;18.412;2023-05-01T05:55:33;100290.88;;;6.42;80.38
67373;BME280;54257;54.496;18.412;2023-05-01T05:58:00;100287.38;;;6.66;78.79
67373;BME280;54257;54.496;18.412;2023-05-01T06:00:29;100288.00;;;6.88;77.08
67373;BME280;54257;54.496;18.412;2023-05-01T06:03:00;100284.48;;;7.12;75.99
67373;BME280;54257;54.496;18.412;2023-05-01T06:05:29;100282.34;;;7.39;75.06
67373;BME280;54257;54.496;18.412;2023-05-01T06:07:55;100282.24;;;7.66;73.77
67373;BME280;54257;54.496;18.412;2023-05-01T06:10:22;100279.98;;;7.95;72.57
67373;BME280;54257;54.496;18.412;2023-05-01T06:12:50;100281.24;;;8.24;70.87
67373;BME280;54257;54.496;18.412;2023-05-01T06:15:19;100275.77;;;8.50;68.72
67373;BME280;54257;54.496;18.412;2023-05-01T06:17:48;100276.73;;;8.83;68.76
67373;BME280;54257;54.496;18.412;2023-05-01T06:20:16;100276.75;;;9.14;66.45
67373;BME280;54257;54.496;18.412;2023-05-01T06:22:44;100280.64;;;9.39;64.76
67373;BME280;54257;54.496;18.412;2023-05-01T06:25:12;100279.30;;;9.65;64.85
67373;BME280;54257;54.496;18.412;2023-05-01T06:27:39;100275.38;;;9.93;62.73
67373;BME280;54257;54.496;18.412;2023-05-01T06:30:07;100275.34;;;10.13;59.71
67373;BME280;54257;54.496;18.412;2023-05-01T06:32:36;100273.00;;;10.29;56.92
67373;BME280;54257;54.496;18.412;2023-05-01T06:35:03;100269.66;;;10.48;58.18
67373;BME280;54257;54.496;18.412;2023-05-01T06:37:32;100269.89;;;10.66;56.20
67373;BME280;54257;54.496;18.412;2023-05-01T06:40:00;100268.13;;;10.88;55.74
67373;BME280;54257;54.496;18.412;2023-05-01T06:42:27;100263.64;;;11.03;55.16
67373;BME280;54257;54.496;18.412;2023-05-01T06:44:54;100260.80;;;11.24;54.17
67373;BME280;54257;54.496;18.412;2023-05-01T06:47:21;100263.00;;;11.41;54.08
67373;BME280;54257;54.496;18.412;2023-05-01T06:49:48;100260.93;;;11.61;50.96
67373;BME280;54257;54.496;18.412;2023-05-01T06:52:15;100258.55;;;11.61;49.48
67373;BME280;54257;54.496;18.412;2023-05-01T06:54:42;100257.08;;;11.65;50.67
67373;BME280;54257;54.496;18.412;2023-05-01T06:57:09;100254.25;;;11.79;51.08
67373;BME280;54257;54.496;18.412;2023-05-01T06:59:36;100250.24;;;11.95;49.95
67373;BME280;54257;54.496;18.412;2023-05-01T07:02:03;100249.57;;;12.07;49.42
67373;BME280;54257;54.496;18.412;2023-05-01T07:04:30;100249.38;;;12.28;48.85
67373;BME280;54257;54.496;18.412;2023-05-01T07:06:59;100241.93;;;12.47;49.59
67373;BME280;54257;54.496;18.412;2023-05-01T07:09:27;100242.30;;;12.77;48.27
67373;BME280;54257;54.496;18.412;2023-05-01T07:11:55;100241.34;;;12.82;45.69
67373;BME280;54257;54.496;18.412;2023-05-01T07:14:24;100236.45;;;12.90;46.67
67373;BME280;54257;54.496;18.412;2023-05-01T07:16:51;100236.60;;;13.02;46.07
67373;BME280;54257;54.496;18.412;2023-05-01T07:19:18;100236.84;;;13.10;46.08
67373;BME280;54257;54.496;18.412;2023-05-01T07:21:44;100240.84;;;13.27;45.63
67373;BME280;54257;54.496;18.412;2023-05-01T07:24:11;100239.63;;;13.43;45.48
67373;BME280;54257;54.496;18.412;2023-05-01T07:26:38;100238.41;;;13.60;44.66
67373;BME280;54257;54.496;18.412;2023-05-01T07:29:05;100239.34;;;13.69;44.08
67373;BME280;54257;54.496;18.412;2023-05-01T07:31:32;100240.14;;;13.83;44.14
67373;BME280;54257;54.496;18.412;2023-05-01T07:33:59;100238.13;;;13.91;42.22
67373;BME280;54257;54.496;18.412;2023-05-01T07:36:26;100235.08;;;13.95;42.86
67373;BME280;54257;54.496;18.412;2023-05-01T07:38:54;100234.27;;;14.03;42.06
67373;BME280;54257;54.496;18.412;2023-05-01T07:41:22;100230.34;;;14.06;42.40
67373;BME280;54257;54.496;18.412;2023-05-01T07:43:50;100229.29;;;14.32;44.33
67373;BME280;54257;54.496;18.412;2023-05-01T07:46:17;100228.94;;;14.54;42.31
67373;BME280;54257;54.496;18.412;2023-05-01T07:48:44;100229.52;;;14.68;42.35
67373;BME280;54257;54.496;18.412;2023-05-01T07:51:11;100229.00;;;14.70;41.25
67373;BME280;54257;54.496;18.412;2023-05-01T07:53:37;100226.08;;;14.69;41.10
67373;BME280;54257;54.496;18.412;2023-05-01T07:56:07;100228.36;;;14.81;41.44
67373;BME280;54257;54.496;18.412;2023-05-01T07:58:36;100220.98;;;14.88;40.50
67373;BME280;54257;54.496;18.412;2023-05-01T08:01:04;100220.52;;;14.99;40.97
67373;BME280;54257;54.496;18.412;2023-05-01T08:03:31;100221.21;;;15.11;39.94
67373;BME280;54257;54.496;18.412;2023-05-01T08:05:59;100221.90;;;15.12;39.34
67373;BME280;54257;54.496;18.412;2023-05-01T08:08:26;100221.91;;;15.11;39.83
67373;BME280;54257;54.496;18.412;2023-05-01T08:10:53;100221.77;;;15.23;39.88
67373;BME280;54257;54.496;18.412;2023-05-01T08:13:20;100217.30;;;15.32;40.07
67373;BME280;54257;54.496;18.412;2023-05-01T08:15:47;100221.79;;;15.45;39.04
67373;BME280;54257;54.496;18.412;2023-05-01T08:18:14;100219.73;;;15.44;38.95
67373;BME280;54257;54.496;18.412;2023-05-01T08:20:46;100218.19;;;15.46;39.75
67373;BME280;54257;54.496;18.412;2023-05-01T08:23:15;100219.21;;;15.48;39.48
67373;BME280;54257;54.496;18.412;2023-05-01T08:25:42;100221.83;;;15.65;39.00
67373;BME280;54257;54.496;18.412;2023-05-01T08:28:13;100222.87;;;15.74;39.13
67373;BME280;54257;54.496;18.412;2023-05-01T08:30:41;100219.77;;;15.91;38.33
67373;BME280;54257;54.496;18.412;2023-05-01T08:33:08;100220.44;;;15.94;37.59
67373;BME280;54257;54.496;18.412;2023-05-01T08:35:35;100221.64;;;15.94;37.58
67373;BME280;54257;54.496;18.412;2023-05-01T08:38:02;100218.70;;;16.03;36.92
67373;BME280;54257;54.496;18.412;2023-05-01T08:40:31;100218.16;;;16.19;38.29
67373;BME280;54257;54.496;18.412;2023-05-01T08:43:01;100214.84;;;16.40;36.19
67373;BME280;54257;54.496;18.412;2023-05-01T08:45:32;100211.55;;;16.44;36.69
67373;BME280;54257;54.496;18.412;2023-05-01T08:48:07;100211.18;;;16.49;35.99
67373;BME280;54257;54.496;18.412;2023-05-01T08:50:38;100209.79;;;16.54;36.76
67373;BME280;54257;54.496;18.412;2023-05-01T08:53:05;100206.79;;;16.75;36.28
67373;BME280;54257;54.496;18.412;2023-05-01T08:55:34;100207.61;;;16.87;35.67
67373;BME280;54257;54.496;18.412;2023-05-01T08:58:02;100204.11;;;16.95;36.30
67373;BME280;54257;54.496;18.412;2023-05-01T09:00:31;100204.77;;;16.99;35.70
67373;BME280;54257;54.496;18.412;2023-05-01T09:03:00;100204.22;;;17.06;35.55
67373;BME280;54257;54.496;18.412;2023-05-01T09:05:31;100207.84;;;17.06;35.18
67373;BME280;54257;54.496;18.412;2023-05-01T09:07:59;100201.15;;;17.26;36.03
67373;BME280;54257;54.496;18.412;2023-05-01T09:10:27;100192.55;;;17.44;35.27
67373;BME280;54257;54.496;18.412;2023-05-01T09:12:56;100195.60;;;17.52;34.34
67373;BME280;54257;54.496;18.412;2023-05-01T09:15:28;100198.06;;;17.47;34.85
67373;BME280;54257;54.496;18.412;2023-05-01T09:17:56;100187.55;;;17.68;35.38
67373;BME280;54257;54.496;18.412;2023-05-01T09:20:25;100187.88;;;17.89;34.59
67373;BME280;54257;54.496;18.412;2023-05-01T09:22:52;100183.98;;;18.00;34.15
67373;BME280;54257;54.496;18.412;2023-05-01T09:25:19;100180.21;;;18.12;33.56
67373;BME280;54257;54.496;18.412;2023-05-01T09:27:46;100180.46;;;18.06;33.04
67373;BME280;54257;54.496;18.412;2023-05-01T09:33:13;100179.93;;;18.67;34.37
67373;BME280;54257;54.496;18.412;2023-05-01T09:35:54;100178.00;;;18.95;32.67
67373;BME280;54257;54.496;18.412;2023-05-01T09:38:26;100175.89;;;18.97;31.63
67373;BME280;54257;54.496;18.412;2023-05-01T09:40:55;100172.11;;;19.07;32.07
67373;BME280;54257;54.496;18.412;2023-05-01T09:43:27;100167.36;;;19.13;31.66
67373;BME280;54257;54.496;18.412;2023-05-01T09:46:02;100164.19;;;19.27;32.95
67373;BME280;54257;54.496;18.412;2023-05-01T09:48:36;100158.65;;;19.59;32.05
67373;BME280;54257;54.496;18.412;2023-05-01T09:51:26;100160.21;;;19.90;31.09
67373;BME280;54257;54.496;18.412;2023-05-01T09:53:56;100157.62;;;19.70;30.34
67373;BME280;54257;54.496;18.412;2023-05-01T09:56:28;100161.97;;;19.69;30.25
67373;BME280;54257;54.496;18.412;2023-05-01T09:58:57;100159.65;;;19.63;31.42
67373;BME280;54257;54.496;18.412;2023-05-01T10:01:42;100158.10;;;19.72;31.67
67373;BME280;54257;54.496;18.412;2023-05-01T10:04:11;100153.39;;;19.83;32.68
67373;BME280;54257;54.496;18.412;2023-05-01T10:06:39;100150.53;;;20.16;32.19
67373;BME280;54257;54.496;18.412;2023-05-01T10:09:06;100146.42;;;20.30;31.78
67373;BME280;54257;54.496;18.412;2023-05-01T10:11:50;100140.02;;;20.55;31.45
67373;BME280;54257;54.496;18.412;2023-05-01T10:14:21;100136.56;;;20.86;31.44
67373;BME280;54257;54.496;18.412;2023-05-01T10:16:49;100134.73;;;20.98;30.59
67373;BME280;54257;54.496;18.412;2023-05-01T10:19:18;100132.57;;;21.02;30.46
67373;BME280;54257;54.496;18.412;2023-05-01T10:21:46;100129.05;;;20.95;29.34
67373;BME280;54257;54.496;18.412;2023-05-01T10:24:13;100122.95;;;21.04;29.89
67373;BME280;54257;54.496;18.412;2023-05-01T10:26:42;100118.16;;;21.15;28.18
67373;BME280;54257;54.496;18.412;2023-05-01T10:29:12;100115.13;;;20.97;27.35
67373;BME280;54257;54.496;18.412;2023-05-01T10:31:39;100112.60;;;20.71;28.57
67373;BME280;54257;54.496;18.412;2023-05-01T10:34:06;100112.77;;;20.38;29.23
67373;BME280;54257;54.496;18.412;2023-05-01T10:36:37;100110.59;;;20.26;29.85
67373;BME280;54257;54.496;18.412;2023-05-01T10:39:05;100105.45;;;20.40;30.49
67373;BME280;54257;54.496;18.412;2023-05-01T10:44:25;100093.52;;;21.07;30.63
67373;BME280;54257;54.496;18.412;2023-05-01T10:46:53;100089.70;;;21.36;30.29
67373;BME280;54257;54.496;18.412;2023-05-01T10:49:20;100090.27;;;21.61;29.87
67373;BME280;54257;54.496;18.412;2023-05-01T10:54:30;100081.61;;;21.33;29.90
67373;BME280;54257;54.496;18.412;2023-05-01T10:57:00;100082.98;;;21.40;29.47
67373;BME280;54257;54.496;18.412;2023-05-01T11:02:30;100076.97;;;21.01;28.72
67373;BME280;54257;54.496;18.412;2023-05-01T11:04:57;100073.39;;;21.20;30.01
67373;BME280;54257;54.496;18.412;2023-05-01T11:07:24;100068.15;;;21.55;30.13
67373;BME280;54257;54.496;18.412;2023-05-01T11:09:54;100066.91;;;21.94;29.53
67373;BME280;54257;54.496;18.412;2023-05-01T11:12:49;100060.58;;;22.03;28.23
67373;BME280;54257;54.496;18.412;2023-05-01T11:15:32;100053.41;;;22.23;29.28
67373;BME280;54257;54.496;18.412;2023-05-01T11:18:00;100055.48;;;22.52;28.93
67373;BME280;54257;54.496;18.412;2023-05-01T11:22:55;100048.98;;;22.65;27.53
67373;BME280;54257;54.496;18.412;2023-05-01T11:25:25;100050.29;;;22.62;27.64
67373;BME280;54257;54.496;18.412;2023-05-01T11:28:01;100045.45;;;22.61;27.59
67373;BME280;54257;54.496;18.412;2023-05-01T11:30:38;100041.19;;;22.69;28.67
67373;BME280;54257;54.496;18.412;2023-05-01T11:33:06;100035.05;;;22.65;26.19
67373;BME280;54257;54.496;18.412;2023-05-01T11:35:33;100032.66;;;22.63;27.16
67373;BME280;54257;54.496;18.412;2023-05-01T11:38:00;100033.48;;;22.65;26.22
67373;BME280;54257;54.496;18.412;2023-05-01T11:40:31;100036.77;;;22.38;25.41
67373;BME280;54257;54.496;18.412;2023-05-01T11:43:04;100025.60;;;22.27;26.86
67373;BME280;54257;54.496;18.412;2023-05-01T11:45:32;100021.20;;;22.40;27.71
67373;BME280;54257;54.496;18.412;2023-05-01T11:47:59;100013.29;;;22.64;27.88
67373;BME280;54257;54.496;18.412;2023-05-01T11:50:35;100014.90;;;22.74;26.16
67373;BME280;54257;54.496;18.412;2023-05-01T11:53:03;100012.46;;;22.75;26.17
67373;BME280;54257;54.496;18.412;2023-05-01T11:55:37;100011.90;;;22.70;25.65
67373;BME280;54257;54.496;18.412;2023-05-01T11:58:05;100013.00;;;22.57;24.93
67373;BME280;54257;54.496;18.412;2023-05-01T12:00:35;100010.58;;;22.39;25.67
67373;BME280;54257;54.496;18.412;2023-05-01T12:03:09;99998.27;;;22.44;25.93
67373;BME280;54257;54.496;18.412;2023-05-01T12:05:38;99995.83;;;22.44;26.09
67373;BME280;54257;54.496;18.412;2023-05-01T12:10:36;99992.16;;;22.17;25.69
67373;BME280;54257;54.496;18.412;2023-05-01T12:13:04;99996.30;;;21.99;25.76
67373;BME280;54257;54.496;18.412;2023-05-01T12:15:34;99995.33;;;21.85;25.61
67373;BME280;54257;54.496;18.412;2023-05-01T12:18:06;99988.38;;;21.79;26.00
67373;BME280;54257;54.496;18.412;2023-05-01T12:20:46;99984.81;;;21.82;25.98
67373;BME280;54257;54.496;18.412;2023-05-01T12:23:14;99986.85;;;21.66;24.54
67373;BME280;54257;54.496;18.412;2023-05-01T12:25:44;99982.08;;;21.50;24.70
67373;BME280;54257;54.496;18.412;2023-05-01T12:28:13;99976.98;;;21.46;25.10
67373;BME280;54257;54.496;18.412;2023-05-01T12:30:41;99973.88;;;21.38;24.31
67373;BME280;54257;54.496;18.412;2023-05-01T12:33:13;99974.02;;;21.27;25.05
67373;BME280;54257;54.496;18.412;2023-05-01T12:35:41;99969.05;;;21.30;26.06
67373;BME280;54257;54.496;18.412;2023-05-01T12:38:21;99966.12;;;21.43;25.26
67373;BME280;54257;54.496;18.412;2023-05-01T12:40:58;99964.69;;;21.51;25.29
67373;BME280;54257;54.496;18.412;2023-05-01T12:43:30;99956.91;;;21.48;24.30
67373;BME280;54257;54.496;18.412;2023-05-01T12:45:58;99956.23;;;21.48;25.54
67373;BME280;54257;54.496;18.412;2023-05-01T12:48:25;99952.88;;;21.49;25.90
67373;BME280;54257;54.496;18.412;2023-05-01T12:50:53;99946.88;;;21.53;25.17
67373;BME280;54257;54.496;18.412;2023-05-01T12:53:21;99943.56;;;21.59;25.85
67373;BME280;54257;54.496;18.412;2023-05-01T12:55:51;99934.66;;;21.66;25.67
67373;BME280;54257;54.496;18.412;2023-05-01T12:58:18;99933.69;;;21.70;26.21
67373;BME280;54257;54.496;18.412;2023-05-01T13:00:48;99928.31;;;21.75;26.16
67373;BME280;54257;54.496;18.412;2023-05-01T13:03:26;99923.81;;;21.74;25.71
67373;BME280;54257;54.496;18.412;2023-05-01T13:05:58;99915.02;;;21.78;26.05
67373;BME280;54257;54.496;18.412;2023-05-01T13:08:30;99913.65;;;21.82;25.67
67373;BME280;54257;54.496;18.412;2023-05-01T13:10:59;99914.09;;;21.68;24.35
67373;BME280;54257;54.496;18.412;2023-05-01T13:13:33;99906.12;;;21.55;25.27
67373;BME280;54257;54.496;18.412;2023-05-01T13:16:08;99898.57;;;21.58;24.84
67373;BME280;54257;54.496;18.412;2023-05-01T13:18:51;99889.02;;;21.52;25.05
67373;BME280;54257;54.496;18.412;2023-05-01T13:21:20;99886.61;;;21.63;25.94
67373;BME280;54257;54.496;18.412;2023-05-01T13:23:55;99878.70;;;21.71;25.17
67373;BME280;54257;54.496;18.412;2023-05-01T13:26:30;99878.38;;;21.70;23.60
67373;BME280;54257;54.496;18.412;2023-05-01T13:28:59;99880.73;;;21.84;23.86